Time;durP1;ratioP1;P1;durP2;ratioP2;P2;SDS_P1;SDS_P2;PMS_P1;PMS_P2;Temp;Humidity;BMP_temperature;BMP_pressure;BME280_temperature;BME280_humidity;BME280_pressure;Samples;Min_cycle;Max_cycle;Signal;HPM_P1;HPM_P2
2022/01/11 00:01:56;;;;;;;22.08;9.50;;;;;;;-148.16;100.00;58328.31;5078534;28;20052;-65
2022/01/11 00:04:42;;;;;;;22.13;8.43;;;;;;;-148.16;100.00;58328.31;5093633;28;20044;-64
2022/01/11 00:07:30;;;;;;;19.58;8.25;;;;;;;-148.16;100.00;58328.31;5094994;28;20052;-66
2022/01/11 00:10:26;;;;;;;19.63;8.60;;;;;;;-148.16;100.00;58328.31;5093446;28;20493;-64
2022/01/11 00:13:13;;;;;;;22.48;9.70;;;;;;;-148.16;100.00;58328.31;5093082;28;20044;-64
2022/01/11 00:15:59;;;;;;;24.35;9.57;;;;;;;-148.16;100.00;58328.31;5093549;28;20399;-64
2022/01/11 00:18:45;;;;;;;20.42;9.05;;;;;;;-148.16;100.00;58328.31;5084078;28;20048;-65
2022/01/11 00:21:31;;;;;;;22.55;9.05;;;;;;;-148.16;100.00;58328.31;5093176;28;20036;-63
2022/01/11 00:24:30;;;;;;;24.58;9.32;;;;;;;-148.16;100.00;58328.31;5093265;28;20048;-64
2022/01/11 00:27:18;;;;;;;22.10;9.73;;;;;;;-148.16;100.00;58328.31;5083904;28;20450;-64
2022/01/11 00:30:08;;;;;;;27.42;9.45;;;;;;;-148.16;100.00;58328.31;5091981;28;20403;-64
2022/01/11 00:32:56;;;;;;;19.35;8.48;;;;;;;-148.16;100.00;58328.31;5091890;28;20040;-65
2022/01/11 00:35:44;;;;;;;24.10;10.80;;;;;;;-148.16;100.00;58328.31;5098164;28;20040;-65
2022/01/11 00:38:34;;;;;;;25.75;9.88;;;;;;;-148.16;100.00;58328.31;5083688;28;20040;-65
2022/01/11 00:41:20;;;;;;;28.58;10.23;;;;;;;-148.16;100.00;58328.31;5092858;28;20487;-65
2022/01/11 00:44:07;;;;;;;27.52;11.77;;;;;;;-148.16;100.00;58328.31;5091756;28;20048;-65
2022/01/11 00:46:52;;;;;;;26.65;10.65;;;;;;;-148.16;100.00;58328.31;5078024;28;20048;-65
2022/01/11 00:49:40;;;;;;;30.75;10.88;;;;;;;-148.16;100.00;58328.31;5092352;28;20485;-64
2022/01/11 00:52:26;;;;;;;30.80;11.43;;;;;;;-148.16;100.00;58328.31;5092854;28;20040;-64
2022/01/11 00:55:11;;;;;;;28.67;10.90;;;;;;;-148.16;100.00;58328.31;5093348;28;20467;-64
2022/01/11 00:57:58;;;;;;;31.10;10.70;;;;;;;-148.16;100.00;58328.31;5095160;28;20036;-64
2022/01/11 01:00:44;;;;;;;29.75;11.43;;;;;;;-148.16;100.00;58328.31;5087233;28;20052;-64
2022/01/11 01:03:31;;;;;;;29.67;12.18;;;;;;;-148.16;100.00;58328.31;5096880;28;20036;-64
2022/01/11 01:06:17;;;;;;;30.40;10.93;;;;;;;-148.16;100.00;58328.31;5096655;28;20048;-64
2022/01/11 01:09:03;;;;;;;29.67;12.48;;;;;;;-148.16;100.00;58328.31;5096792;28;20407;-64
2022/01/11 01:11:54;;;;;;;34.67;12.95;;;;;;;-148.16;100.00;58328.31;5060650;28;20044;-68
2022/01/11 01:14:40;;;;;;;29.67;11.20;;;;;;;-148.16;100.00;58328.31;5066923;28;20452;-65
2022/01/11 01:17:28;;;;;;;29.08;10.82;;;;;;;-148.16;100.00;58328.31;5080982;28;20052;-64
2022/01/11 01:20:14;;;;;;;27.40;10.23;;;;;;;-148.16;100.00;58328.31;5081148;28;20044;-65
2022/01/11 01:23:00;;;;;;;26.92;10.05;;;;;;;-148.16;100.00;58328.31;5096566;28;20056;-64
2022/01/11 01:25:47;;;;;;;29.65;10.65;;;;;;;-148.16;100.00;58328.31;5096309;28;20044;-64
2022/01/11 01:28:34;;;;;;;29.88;11.95;;;;;;;-148.16;100.00;58328.31;5073097;28;20044;-62
2022/01/11 01:31:19;;;;;;;29.05;10.98;;;;;;;-148.16;100.00;58328.31;5072970;28;20483;-64
2022/01/11 01:34:12;;;;;;;;;;;;;;;-148.16;100.00;58328.31;5096492;28;20044;-64
2022/01/11 01:36:57;;;;;;;22.88;9.98;;;;;;;-148.16;100.00;58328.31;5096271;28;19923;-65
2022/01/11 01:39:44;;;;;;;31.58;11.20;;;;;;;-148.16;100.00;58328.31;5096280;28;20032;-65
2022/01/11 01:42:33;;;;;;;31.63;11.68;;;;;;;-148.16;100.00;58328.31;5072638;28;20059;-63
2022/01/11 01:45:23;;;;;;;24.17;9.88;;;;;;;-148.16;100.00;58328.31;5081006;28;20048;-63
2022/01/11 01:48:10;;;;;;;26.52;10.40;;;;;;;-148.16;100.00;58328.31;5096013;28;20048;-64
2022/01/11 01:50:56;;;;;;;27.77;9.98;;;;;;;-148.16;100.00;58328.31;5096375;28;20055;-65
2022/01/11 01:53:47;;;;;;;24.58;9.32;;;;;;;-148.16;100.00;58328.31;5096223;28;20040;-64
2022/01/11 01:56:34;;;;;;;33.15;11.07;;;;;;;-148.16;100.00;58328.31;5095814;28;20052;-64
2022/01/11 01:59:20;;;;;;;29.70;11.85;;;;;;;-148.16;100.00;58328.31;5066845;28;20056;-64
2022/01/11 02:02:09;;;;;;;28.90;10.48;;;;;;;-148.16;100.00;58328.31;5058228;28;20043;-64
2022/01/11 02:04:54;;;;;;;33.08;12.27;;;;;;;-148.16;100.00;58328.31;5079845;28;20426;-64
2022/01/11 02:07:40;;;;;;;31.92;11.02;;;;;;;-148.16;100.00;58328.31;5085944;28;20040;-65
2022/01/11 02:10:26;;;;;;;29.77;11.65;;;;;;;-148.16;100.00;58328.31;5095407;28;20044;-64
2022/01/11 02:13:12;;;;;;;28.58;10.43;;;;;;;-148.16;100.00;58328.31;5080333;28;20044;-64
2022/01/11 02:15:59;;;;;;;26.50;11.02;;;;;;;-148.16;100.00;58328.31;5095577;28;20052;-64
2022/01/11 02:18:46;;;;;;;29.83;11.57;;;;;;;-148.16;100.00;58328.31;5079917;28;20060;-65
2022/01/11 02:21:38;;;;;;;30.17;12.77;;;;;;;-148.16;100.00;58328.31;5071675;28;20044;-65
2022/01/11 02:24:24;;;;;;;34.58;12.18;;;;;;;-148.16;100.00;58328.31;5080064;28;20040;-64
2022/01/11 02:27:10;;;;;;;26.88;11.20;;;;;;;-148.16;100.00;58328.31;5080145;28;20048;-64
2022/01/11 02:30:00;;;;;;;29.20;11.55;;;;;;;-148.16;100.00;58328.31;5079893;28;20063;-64
2022/01/11 02:32:53;;;;;;;32.58;12.13;;;;;;;-148.16;100.00;58328.31;5090946;28;20048;-65
2022/01/11 02:35:50;;;;;;;29.05;10.98;;;;;;;-148.16;100.00;58328.31;5074338;28;20048;-65
2022/01/11 02:38:37;;;;;;;34.85;12.68;;;;;;;-148.16;100.00;58328.31;5046063;28;20037;-64
2022/01/11 02:41:27;;;;;;;27.63;11.07;;;;;;;-148.16;100.00;58328.31;5074825;28;20484;-64
2022/01/11 02:44:13;;;;;;;36.95;12.20;;;;;;;-148.16;100.00;58328.31;5038028;28;20044;-65
2022/01/11 02:46:59;;;;;;;27.50;11.75;;;;;;;-148.16;100.00;58328.31;5045476;28;20044;-65
2022/01/11 02:49:48;;;;;;;32.33;12.95;;;;;;;-148.16;100.00;58328.31;5059301;28;20048;-63
2022/01/11 02:52:45;;;;;;;34.17;12.77;;;;;;;-148.16;100.00;58328.31;5059682;28;20078;-65
2022/01/11 02:55:37;;;;;;;33.13;13.13;;;;;;;-148.16;100.00;58328.31;5059520;28;20041;-65
2022/01/11 02:58:23;;;;;;;34.83;14.77;;;;;;;-148.16;100.00;58328.31;5065386;28;20048;-64
2022/01/11 03:01:10;;;;;;;37.25;13.50;;;;;;;-148.16;100.00;58328.31;5074533;28;20426;-65
2022/01/11 03:03:56;;;;;;;37.22;13.07;;;;;;;-148.16;100.00;58328.31;5051410;28;20040;-65
2022/01/11 03:06:43;;;;;;;35.50;14.88;;;;;;;-148.16;100.00;58328.31;5050833;28;20052;-64
2022/01/11 03:09:38;;;;;;;33.05;12.82;;;;;;;-148.16;100.00;58328.31;5058988;28;20044;-64
2022/01/11 03:12:24;;;;;;;32.42;13.23;;;;;;;-148.16;100.00;58328.31;5059217;28;20048;-65
2022/01/11 03:15:11;;;;;;;30.85;11.40;;;;;;;-148.16;100.00;58328.31;5059012;28;20052;-64
2022/01/11 03:17:58;;;;;;;33.85;12.63;;;;;;;-148.16;100.00;58328.31;5058987;28;20079;-65
2022/01/11 03:20:46;;;;;;;31.42;13.05;;;;;;;-148.16;100.00;58328.31;5062893;28;20044;-66
2022/01/11 03:23:33;;;;;;;27.05;11.05;;;;;;;-148.16;100.00;58328.31;5065072;28;20047;-65
2022/01/11 03:26:20;;;;;;;34.90;12.57;;;;;;;-148.16;100.00;58328.31;5065025;28;20036;-65
2022/01/11 03:29:05;;;;;;;33.72;11.60;;;;;;;-148.16;100.00;58328.31;5065244;28;20525;-65
2022/01/11 03:31:52;;;;;;;28.38;12.30;;;;;;;-148.16;100.00;58328.31;5079054;28;20044;-64
2022/01/11 03:34:38;;;;;;;31.98;12.25;;;;;;;-148.16;100.00;58328.31;5078720;28;20044;-65
2022/01/11 03:37:24;;;;;;;39.35;13.30;;;;;;;-148.16;100.00;58328.31;5078436;28;20487;-64
2022/01/11 03:40:14;;;;;;;34.88;12.60;;;;;;;-148.16;100.00;58328.31;5078554;28;20052;-64
2022/01/11 03:43:04;;;;;;;34.35;13.50;;;;;;;-148.16;100.00;58328.31;5079207;28;20044;-64
2022/01/11 03:45:51;;;;;;;35.25;13.00;;;;;;;-148.16;100.00;58328.31;5056722;28;20060;-66
2022/01/11 03:48:38;;;;;;;33.47;11.95;;;;;;;-148.16;100.00;58328.31;5078839;28;20052;-65
2022/01/11 03:51:24;;;;;;;31.15;10.85;;;;;;;-148.16;100.00;58328.31;5070658;28;20471;-65
2022/01/11 03:54:16;;;;;;;32.70;12.95;;;;;;;-148.16;100.00;58328.31;5070233;28;20044;-65
2022/01/11 03:57:18;;;;;;;35.42;12.93;;;;;;;-148.16;100.00;58328.31;5078228;28;20043;-65
2022/01/11 04:00:12;;;;;;;31.83;12.80;;;;;;;-148.16;100.00;58328.31;5076901;28;20044;-65
2022/01/11 04:03:04;;;;;;;34.50;11.82;;;;;;;-148.16;100.00;58328.31;5068885;28;20040;-65
2022/01/11 04:05:50;;;;;;;33.00;11.90;;;;;;;-148.16;100.00;58328.31;5074039;28;20043;-64
2022/01/11 04:08:35;;;;;;;33.05;12.07;;;;;;;-148.16;100.00;58328.31;5057248;28;20048;-61
2022/01/11 04:11:21;;;;;;;31.38;12.45;;;;;;;-148.16;100.00;58328.31;5057949;28;20044;-64
2022/01/11 04:14:07;;;;;;;32.22;13.00;;;;;;;-148.16;100.00;58328.31;5057991;28;20407;-63
2022/01/11 04:16:53;;;;;;;30.08;11.23;;;;;;;-148.16;100.00;58328.31;5080623;28;20048;-64
2022/01/11 04:19:39;;;;;;;32.08;12.57;;;;;;;-148.16;100.00;58328.31;5078005;28;20490;-64
2022/01/11 04:22:25;;;;;;;28.13;11.63;;;;;;;-148.16;100.00;58328.31;5076486;28;20479;-64
2022/01/11 04:25:12;;;;;;;33.92;12.68;;;;;;;-148.16;100.00;58328.31;5077830;28;20060;-65
2022/01/11 04:27:58;;;;;;;28.13;11.52;;;;;;;-148.16;100.00;58328.31;5093513;28;20043;-65
2022/01/11 04:30:44;;;;;;;26.92;12.10;;;;;;;-148.16;100.00;58328.31;5078292;28;20044;-64
2022/01/11 04:33:32;;;;;;;31.25;12.25;;;;;;;-148.16;100.00;58328.31;5068995;28;20047;-65
2022/01/11 04:36:18;;;;;;;29.45;10.95;;;;;;;-148.16;100.00;58328.31;5077815;28;20414;-64
2022/01/11 04:39:08;;;;;;;32.65;12.07;;;;;;;-148.16;100.00;58328.31;5055325;28;20044;-64
2022/01/11 04:41:53;;;;;;;26.05;10.63;;;;;;;-148.16;100.00;58328.31;5077617;28;20060;-65
2022/01/11 04:44:41;;;;;;;32.65;13.43;;;;;;;-148.16;100.00;58328.31;5077571;28;20052;-65
2022/01/11 04:47:27;;;;;;;25.20;10.25;;;;;;;-148.16;100.00;58328.31;5077717;28;20048;-65
2022/01/11 04:50:15;;;;;;;32.28;12.30;;;;;;;-148.16;100.00;58328.31;5092910;28;20488;-64
2022/01/11 04:53:02;;;;;;;29.50;12.52;;;;;;;-148.16;100.00;58328.31;5077692;28;20048;-65
2022/01/11 04:55:48;;;;;;;30.35;11.40;;;;;;;-148.16;100.00;58328.31;5069419;28;20395;-65
2022/01/11 04:58:35;;;;;;;28.55;11.85;;;;;;;-148.16;100.00;58328.31;5077352;28;20048;-64
2022/01/11 05:01:20;;;;;;;31.23;11.98;;;;;;;-148.16;100.00;58328.31;5077429;28;20040;-65
2022/01/11 05:04:07;;;;;;;27.63;10.63;;;;;;;-148.16;100.00;58328.31;5063608;28;20395;-64
2022/01/11 05:06:56;;;;;;;29.60;12.00;;;;;;;-148.16;100.00;58328.31;5069307;28;20051;-65
2022/01/11 05:09:43;;;;;;;28.60;12.40;;;;;;;-148.16;100.00;58328.31;5077307;28;20052;-66
2022/01/11 05:12:30;;;;;;;26.60;11.98;;;;;;;-148.16;100.00;58328.31;5092570;28;20044;-65
2022/01/11 05:15:16;;;;;;;35.83;12.55;;;;;;;-148.16;100.00;58328.31;5077140;28;20048;-64
2022/01/11 05:18:04;;;;;;;27.88;11.02;;;;;;;-148.16;100.00;58328.31;5077257;28;20048;-65
2022/01/11 05:20:52;;;;;;;33.05;12.30;;;;;;;-148.16;100.00;58328.31;5077094;28;20048;-65
2022/01/11 05:23:38;;;;;;;31.92;12.05;;;;;;;-148.16;100.00;58328.31;5077052;28;20479;-63
2022/01/11 05:26:27;;;;;;;31.85;10.80;;;;;;;-148.16;100.00;58328.31;5082492;28;20394;-66
2022/01/11 05:29:13;;;;;;;34.47;11.27;;;;;;;-148.16;100.00;58328.31;5076011;28;20048;-63
2022/01/11 05:31:59;;;;;;;35.00;12.85;;;;;;;-148.16;100.00;58328.31;5068822;28;20039;-63
2022/01/11 05:34:46;;;;;;;36.22;12.40;;;;;;;-148.16;100.00;58328.31;5075950;28;20040;-65
2022/01/11 05:37:32;;;;;;;29.73;10.95;;;;;;;-148.16;100.00;58328.31;5069509;28;20491;-64
2022/01/11 05:40:22;;;;;;;32.10;12.90;;;;;;;-148.16;100.00;58328.31;5078701;28;20395;-64
2022/01/11 05:43:12;;;;;;;27.83;11.27;;;;;;;-148.16;100.00;58328.31;5068323;28;20045;-67
2022/01/11 05:45:58;;;;;;;29.70;11.50;;;;;;;-148.16;100.00;58328.31;5067575;28;20048;-64
2022/01/11 05:48:45;;;;;;;34.42;13.95;;;;;;;-148.16;100.00;58328.31;5082939;28;20044;-65
2022/01/11 05:51:32;;;;;;;25.20;10.90;;;;;;;-148.16;100.00;58328.31;5066675;28;20044;-67
2022/01/11 05:54:18;;;;;;;29.17;11.55;;;;;;;-148.16;100.00;58328.31;5095956;28;20044;-65
2022/01/11 05:57:05;;;;;;;25.77;11.95;;;;;;;-148.16;100.00;58328.31;5080744;28;20070;-64
2022/01/11 05:59:51;;;;;;;23.80;10.32;;;;;;;-148.16;100.00;58328.31;5080294;28;20040;-65
2022/01/11 06:02:37;;;;;;;23.85;10.13;;;;;;;-148.16;100.00;58328.31;5080695;28;20040;-62
2022/01/11 06:05:24;;;;;;;32.10;11.50;;;;;;;-148.16;100.00;58328.31;5080494;28;20036;-40
2022/01/11 06:08:16;;;;;;;28.40;10.18;;;;;;;-148.16;100.00;58328.31;5095593;28;20052;-65
2022/01/11 06:11:03;;;;;;;33.15;11.77;;;;;;;-148.16;100.00;58328.31;5080449;28;20055;-65
2022/01/11 06:13:51;;;;;;;26.75;10.98;;;;;;;-148.16;100.00;58328.31;5066655;28;20035;-65
2022/01/11 06:16:38;;;;;;;33.33;13.20;;;;;;;-148.16;100.00;58328.31;5066050;28;20048;-64
2022/01/11 06:19:26;;;;;;;28.95;11.70;;;;;;;-148.16;100.00;58328.31;5066144;28;20056;-65
2022/01/11 06:22:25;;;;;;;26.48;10.45;;;;;;;-148.16;100.00;58328.31;5080138;28;20040;-65
2022/01/11 06:25:13;;;;;;;28.95;12.05;;;;;;;-148.16;100.00;58328.31;5095347;28;20036;-65
2022/01/11 06:27:59;;;;;;;32.75;12.20;;;;;;;-148.16;100.00;58328.31;5080028;28;20483;-65
2022/01/11 06:30:47;;;;;;;24.95;10.68;;;;;;;-148.16;100.00;58328.31;5059800;28;20368;-66
2022/01/11 06:33:34;;;;;;;28.42;10.57;;;;;;;-148.16;100.00;58328.31;5087871;28;20044;-65
2022/01/11 06:36:20;;;;;;;27.48;9.52;;;;;;;-148.16;100.00;58328.31;5087888;28;20041;-64
2022/01/11 06:39:08;;;;;;;30.30;10.63;;;;;;;-148.16;100.00;58328.31;5051354;28;20045;-65
2022/01/11 06:41:57;;;;;;;25.70;10.65;;;;;;;-148.16;100.00;58328.31;5046162;28;20052;-64
2022/01/11 06:44:44;;;;;;;28.15;11.38;;;;;;;-148.16;100.00;58328.31;5059663;28;20041;-65
2022/01/11 06:47:31;;;;;;;29.23;12.25;;;;;;;-148.16;100.00;58328.31;5051057;28;20083;-66
2022/01/11 06:50:17;;;;;;;27.45;12.95;;;;;;;-148.16;100.00;58328.31;5074393;28;20044;-66
2022/01/11 06:53:05;;;;;;;40.53;17.58;;;;;;;-148.16;100.00;58328.31;5073608;28;20372;-66
2022/01/11 06:55:54;;;;;;;35.95;14.90;;;;;;;-148.16;100.00;58328.31;5058459;28;20048;-65
2022/01/11 06:58:41;;;;;;;27.27;11.55;;;;;;;-148.16;100.00;58328.31;5051319;28;20400;-64
2022/01/11 07:01:27;;;;;;;24.08;11.13;;;;;;;-148.16;100.00;58328.31;5073445;28;20056;-64
2022/01/11 07:04:19;;;;;;;25.90;11.82;;;;;;;-148.16;100.00;58328.31;5078204;28;20036;-62
2022/01/11 07:07:09;;;;;;;27.83;12.68;;;;;;;-148.16;100.00;58328.31;5059437;28;20045;-62
2022/01/11 07:09:55;;;;;;;25.45;11.43;;;;;;;-148.16;100.00;58328.31;5068033;28;20459;-68
2022/01/11 07:12:40;;;;;;;25.15;11.18;;;;;;;-148.16;100.00;58328.31;5094450;28;20040;-67
2022/01/11 07:15:26;;;;;;;25.27;11.18;;;;;;;-148.16;100.00;58328.31;5077654;28;20414;-68
2022/01/11 07:18:13;;;;;;;27.35;11.30;;;;;;;-148.16;100.00;58328.31;5061509;28;20395;-67
2022/01/11 07:20:59;;;;;;;22.63;10.15;;;;;;;-148.16;100.00;58328.31;5061243;28;20052;-67
2022/01/11 07:23:48;;;;;;;21.13;9.80;;;;;;;-148.16;100.00;58328.31;5063884;28;20044;-60
2022/01/11 07:26:35;;;;;;;22.88;10.27;;;;;;;-148.16;100.00;58328.31;5057825;28;20037;-66
2022/01/11 07:29:22;;;;;;;23.17;10.68;;;;;;;-148.16;100.00;58328.31;5060708;28;20044;-64
2022/01/11 07:32:08;;;;;;;24.02;9.95;;;;;;;-148.16;100.00;58328.31;5058020;28;20395;-66
2022/01/11 07:34:55;;;;;;;23.25;10.18;;;;;;;-148.16;100.00;58328.31;5058130;28;20052;-67
2022/01/11 07:37:41;;;;;;;20.73;9.60;;;;;;;-148.16;100.00;58328.31;5057545;28;20383;-65
2022/01/11 07:40:30;;;;;;;23.33;11.07;;;;;;;-148.16;100.00;58328.31;5056950;28;20036;-68
2022/01/11 07:43:22;;;;;;;21.45;9.35;;;;;;;-148.16;100.00;58328.31;5057554;28;20052;-65
2022/01/11 07:46:13;;;;;;;20.27;9.55;;;;;;;-148.16;100.00;58328.31;5037290;28;20419;-68
2022/01/11 07:49:05;;;;;;;21.35;9.85;;;;;;;-148.16;100.00;58328.31;5058454;28;20049;-67
2022/01/11 07:51:52;;;;;;;22.13;9.38;;;;;;;-148.16;100.00;58328.31;5064362;28;20040;-67
2022/01/11 07:54:39;;;;;;;22.45;10.30;;;;;;;-148.16;100.00;58328.31;5068037;28;20056;-66
2022/01/11 07:57:29;;;;;;;23.27;10.77;;;;;;;-148.16;100.00;58328.31;5078496;28;20052;-67
2022/01/11 08:00:15;;;;;;;20.90;9.48;;;;;;;-148.16;100.00;58328.31;5077673;28;20483;-68
2022/01/11 08:03:01;;;;;;;18.05;9.18;;;;;;;-148.16;100.00;58328.31;5093683;28;20491;-67
2022/01/11 08:06:07;;;;;;;20.45;8.98;;;;;;;-148.16;100.00;58328.31;5099618;28;20052;-67
2022/01/11 08:08:54;;;;;;;17.08;8.98;;;;;;;-148.16;100.00;58328.31;5070542;28;20056;-66
2022/01/11 08:11:42;;;;;;;21.40;10.20;;;;;;;-148.16;100.00;58328.31;5070188;28;20044;-68
2022/01/11 08:14:29;;;;;;;19.98;8.75;;;;;;;-148.16;100.00;58328.31;5064943;28;20491;-68
2022/01/11 08:17:16;;;;;;;16.67;9.07;;;;;;;-148.16;100.00;58328.31;5078499;28;20475;-66
2022/01/11 08:20:03;;;;;;;23.15;10.27;;;;;;;-148.16;100.00;58328.31;5077997;28;20040;-68
2022/01/11 08:22:51;;;;;;;20.58;8.52;;;;;;;-148.16;100.00;58328.31;5078071;28;20427;-67
2022/01/11 08:25:37;;;;;;;15.25;8.20;;;;;;;-148.16;100.00;58328.31;5077983;28;20044;-67
2022/01/11 08:28:25;;;;;;;19.10;9.50;;;;;;;-148.16;100.00;58328.31;5069528;28;20036;-68
2022/01/11 08:31:16;;;;;;;20.63;9.43;;;;;;;-148.16;100.00;58328.31;5077750;28;20419;-67
2022/01/11 08:34:11;;;;;;;18.63;9.38;;;;;;;-148.16;100.00;58328.31;5069575;28;20043;-67
2022/01/11 08:36:59;;;;;;;18.80;9.60;;;;;;;-148.16;100.00;58328.31;5055691;28;20048;-66
2022/01/11 08:39:46;;;;;;;15.32;8.55;;;;;;;-148.16;100.00;58328.31;5077326;28;20048;-67
2022/01/11 08:42:32;;;;;;;17.10;8.80;;;;;;;-148.16;100.00;58328.31;5077817;28;20043;-66
2022/01/11 08:45:20;;;;;;;15.18;7.80;;;;;;;-148.16;100.00;58328.31;5093065;28;20487;-66
2022/01/11 08:48:07;;;;;;;17.15;8.48;;;;;;;-148.16;100.00;58328.31;5069193;28;20043;-67
2022/01/11 08:50:58;;;;;;;17.85;8.48;;;;;;;-148.16;100.00;58328.31;5077927;28;20052;-67
2022/01/11 08:53:48;;;;;;;17.98;8.50;;;;;;;-148.16;100.00;58328.31;5077458;28;20044;-68
2022/01/11 08:56:35;;;;;;;14.40;7.65;;;;;;;-148.16;100.00;58328.31;5077226;28;20059;-66
2022/01/11 08:59:23;;;;;;;16.25;9.00;;;;;;;-148.16;100.00;58328.31;5077560;28;20051;-67
2022/01/11 09:02:10;;;;;;;17.80;8.75;;;;;;;-148.16;100.00;58328.31;5077691;28;20402;-65
2022/01/11 09:05:01;;;;;;;16.55;8.52;;;;;;;-148.16;100.00;58328.31;5077655;28;20056;-66
2022/01/11 09:07:54;;;;;;;16.15;8.52;;;;;;;-148.16;100.00;58328.31;5064331;28;20043;-66
2022/01/11 09:10:40;;;;;;;16.52;9.57;;;;;;;-148.16;100.00;58328.31;5092492;28;20403;-67
2022/01/11 09:13:28;;;;;;;18.63;9.68;;;;;;;-148.16;100.00;58328.31;5077379;28;20419;-66
2022/01/11 09:16:18;;;;;;;18.52;8.50;;;;;;;-148.16;100.00;58328.31;5092551;28;20056;-65
2022/01/11 09:19:05;;;;;;;14.18;7.32;;;;;;;-148.16;100.00;58328.31;5066021;28;20048;-66
2022/01/11 09:21:56;;;;;;;17.63;8.98;;;;;;;-148.16;100.00;58328.31;5073617;28;20052;-67
2022/01/11 09:24:46;;;;;;;16.63;8.55;;;;;;;-148.16;100.00;58328.31;5081934;28;20048;-65
2022/01/11 09:27:35;;;;;;;13.13;6.90;;;;;;;-148.16;100.00;58328.31;5067995;28;20048;-66
2022/01/11 09:30:26;;;;;;;17.85;8.50;;;;;;;-148.16;100.00;58328.31;5073090;28;20479;-66
2022/01/11 09:33:13;;;;;;;15.63;8.38;;;;;;;-148.16;100.00;58328.31;5067499;28;20043;-66
2022/01/11 09:36:00;;;;;;;15.88;8.57;;;;;;;-148.16;100.00;58328.31;5096435;28;20044;-67
2022/01/11 09:38:48;;;;;;;14.88;7.57;;;;;;;-148.16;100.00;58328.31;5072851;28;20040;-66
2022/01/11 09:41:35;;;;;;;15.25;7.75;;;;;;;-148.16;100.00;58328.31;5096709;28;20044;-67
2022/01/11 09:44:23;;;;;;;14.25;7.78;;;;;;;-148.16;100.00;58328.31;5081084;28;20068;-65
2022/01/11 09:47:12;;;;;;;18.83;8.07;;;;;;;-148.16;100.00;58328.31;5062004;28;20028;-66
2022/01/11 09:50:03;;;;;;;14.13;7.22;;;;;;;-148.16;100.00;58328.31;5052646;28;20040;-66
2022/01/11 09:52:49;;;;;;;13.55;7.05;;;;;;;-148.16;100.00;58328.31;5075626;28;20475;-58
2022/01/11 09:55:37;;;;;;;14.07;8.40;;;;;;;-148.16;100.00;58328.31;5066597;28;20048;-57
2022/01/11 09:58:23;;;;;;;16.60;8.73;;;;;;;-148.16;100.00;58328.31;5060624;28;20040;-57
2022/01/11 10:01:13;;;;;;;18.80;8.60;;;;;;;-148.16;100.00;58328.31;5061066;28;20048;-59
2022/01/11 10:04:25;;;;;;;17.88;9.60;;;;;;;-148.16;100.00;58328.31;5073370;28;20044;-50
2022/01/11 10:07:33;;;;;;;17.83;8.95;;;;;;;-148.16;100.00;58328.31;5080403;28;20048;-50
2022/01/11 10:10:22;;;;;;;20.63;8.65;;;;;;;-148.16;100.00;58328.31;5095580;28;20052;-51
2022/01/11 10:13:28;;;;;;;18.10;9.25;;;;;;;-148.16;100.00;58328.31;5057997;28;20051;-49
2022/01/11 10:16:26;;;;;;;18.48;8.98;;;;;;;-148.16;100.00;58328.31;5080122;28;20052;-50
2022/01/11 10:19:24;;;;;;;23.02;9.57;;;;;;;-148.16;100.00;58328.31;5079938;28;20044;-39
2022/01/11 10:22:12;;;;;;;24.77;10.57;;;;;;;-148.16;100.00;58328.31;5080215;28;20451;-47
2022/01/11 10:24:59;;;;;;;22.00;9.43;;;;;;;-148.16;100.00;58328.31;5095414;28;20048;-51
2022/01/11 10:28:01;;;;;;;18.08;8.93;;;;;;;-148.16;100.00;58328.31;5080048;28;20048;-52
2022/01/11 10:30:50;;;;;;;17.80;9.15;;;;;;;-148.16;100.00;58328.31;5064973;28;20047;-51
2022/01/11 10:33:36;;;;;;;20.20;8.48;;;;;;;-148.16;100.00;58328.31;5095372;28;20044;-52
2022/01/11 10:36:43;;;;;;;21.25;9.65;;;;;;;-148.16;100.00;58328.31;5079906;28;20040;-52
2022/01/11 10:39:34;;;;;;;20.02;9.43;;;;;;;-148.16;100.00;58328.31;5057708;28;20048;-54
2022/01/11 10:42:28;;;;;;;17.38;9.43;;;;;;;-148.16;100.00;58328.31;5079705;28;20051;-50
2022/01/11 10:45:28;;;;;;;17.27;9.38;;;;;;;-148.16;100.00;58328.31;5079565;28;20044;-50
2022/01/11 10:48:19;;;;;;;22.33;9.85;;;;;;;-148.16;100.00;58328.31;5071359;28;20052;-52
2022/01/11 10:51:13;;;;;;;19.83;8.88;;;;;;;-148.16;100.00;58328.31;5071305;28;20048;-53
2022/01/11 10:54:00;;;;;;;17.13;8.80;;;;;;;-148.16;100.00;58328.31;5079531;28;20056;-52
2022/01/11 10:56:46;;;;;;;22.38;9.57;;;;;;;-148.16;100.00;58328.31;5079251;28;20048;-53
2022/01/11 10:59:32;;;;;;;19.70;8.68;;;;;;;-148.16;100.00;58328.31;5079084;28;20048;-53
2022/01/11 11:02:44;;;;;;;14.95;8.73;;;;;;;-148.16;100.00;58328.31;5065455;28;20060;-50
2022/01/11 11:06:07;;;;;;;18.65;9.43;;;;;;;-148.16;100.00;58328.31;5080167;28;20395;-49
2022/01/11 11:08:55;;;;;;;16.63;8.23;;;;;;;-148.16;100.00;58328.31;5065330;28;20048;-50
2022/01/11 11:11:45;;;;;;;20.15;8.90;;;;;;;-148.16;100.00;58328.31;5078935;28;20047;-53
2022/01/11 11:14:51;;;;;;;;;;;;;;;-148.16;100.00;58328.31;5094468;28;20044;-52
2022/01/11 11:17:38;;;;;;;20.98;8.48;;;;;;;-148.16;100.00;58328.31;5065214;28;19915;-51
2022/01/11 11:20:37;;;;;;;17.42;8.57;;;;;;;-148.16;100.00;58328.31;5066308;28;20359;-53
2022/01/11 11:23:23;;;;;;;16.05;8.40;;;;;;;-148.16;100.00;58328.31;5071089;28;20052;-52
2022/01/11 11:26:09;;;;;;;16.27;8.32;;;;;;;-148.16;100.00;58328.31;5093653;28;20043;-48
2022/01/11 11:28:56;;;;;;;19.75;9.63;;;;;;;-148.16;100.00;58328.31;5093662;28;20048;-51
2022/01/11 11:31:42;;;;;;;20.17;9.02;;;;;;;-148.16;100.00;58328.31;5078276;28;20039;-51
2022/01/11 11:34:28;;;;;;;20.70;9.50;;;;;;;-148.16;100.00;58328.31;5078779;28;20052;-50
2022/01/11 11:37:18;;;;;;;17.17;8.60;;;;;;;-148.16;100.00;58328.31;5093629;28;20048;-50
2022/01/11 11:40:13;;;;;;;20.00;9.40;;;;;;;-148.16;100.00;58328.31;5093556;28;20044;-52
2022/01/11 11:43:01;;;;;;;16.05;8.60;;;;;;;-148.16;100.00;58328.31;5083611;28;20048;-52
2022/01/11 11:45:47;;;;;;;18.63;9.38;;;;;;;-148.16;100.00;58328.31;5075271;28;20036;-48
2022/01/11 11:48:34;;;;;;;18.55;8.65;;;;;;;-148.16;100.00;58328.31;5057777;28;20052;-52
2022/01/11 11:51:20;;;;;;;18.88;8.52;;;;;;;-148.16;100.00;58328.31;5073174;28;20144;-51
2022/01/11 11:54:15;;;;;;;18.00;8.65;;;;;;;-148.16;100.00;58328.31;5073207;28;20264;-50
2022/01/11 11:57:01;;;;;;;18.35;8.45;;;;;;;-148.16;100.00;58328.31;5072996;28;20048;-49
2022/01/11 11:59:55;;;;;;;18.55;8.05;;;;;;;-148.16;100.00;58328.31;5072501;28;20057;-50
2022/01/11 12:02:50;;;;;;;20.30;8.80;;;;;;;-148.16;100.00;58328.31;5063511;28;20048;-50
2022/01/11 12:05:42;;;;;;;20.58;8.65;;;;;;;-148.16;100.00;58328.31;5057629;28;20045;-48
2022/01/11 12:08:42;;;;;;;16.63;8.68;;;;;;;-148.16;100.00;58328.31;5072957;28;20040;-52
2022/01/11 12:11:42;;;;;;;15.60;8.48;;;;;;;-148.16;100.00;58328.31;5072689;28;20041;-52
2022/01/11 12:14:31;;;;;;;15.93;7.90;;;;;;;-148.16;100.00;58328.31;5057691;28;20049;-50
2022/01/11 12:17:22;;;;;;;15.98;7.85;;;;;;;-148.16;100.00;58328.31;5072691;28;20044;-52
2022/01/11 12:20:09;;;;;;;17.33;8.55;;;;;;;-148.16;100.00;58328.31;5071287;28;20044;-53
2022/01/11 12:22:56;;;;;;;19.63;8.88;;;;;;;-148.16;100.00;58328.31;5092936;28;20044;-51
2022/01/11 12:25:42;;;;;;;14.30;7.38;;;;;;;-148.16;100.00;58328.31;5077914;28;20407;-56
2022/01/11 12:28:28;;;;;;;15.63;7.78;;;;;;;-148.16;100.00;58328.31;5092988;28;20044;-52
2022/01/11 12:31:28;;;;;;;14.15;8.05;;;;;;;-148.16;100.00;58328.31;5069542;28;20052;-53
2022/01/11 12:34:14;;;;;;;14.40;6.88;;;;;;;-148.16;100.00;58328.31;5093711;28;20048;-50